createdAt,value
2019-02-21T00:01:53.763Z,17.82
2019-02-21T00:04:23.283Z,12.67
2019-02-21T00:06:52.941Z,12.97
2019-02-21T00:09:22.388Z,12.47
2019-02-21T00:11:51.850Z,15.57
2019-02-21T00:14:21.577Z,13.53
2019-02-21T00:16:51.031Z,11.97
2019-02-21T00:19:20.509Z,14.38
2019-02-21T00:21:49.953Z,13.27
2019-02-21T00:24:19.410Z,13.93
2019-02-21T00:26:48.892Z,15.10
2019-02-21T00:29:18.360Z,13.77
2019-02-21T00:31:47.825Z,13.93
2019-02-21T00:34:17.337Z,13.95
2019-02-21T00:36:46.775Z,14.43
2019-02-21T00:39:16.232Z,13.30
2019-02-21T00:41:45.683Z,14.43
2019-02-21T00:44:15.157Z,21.10
2019-02-21T00:46:44.612Z,13.53
2019-02-21T00:49:14.089Z,13.40
2019-02-21T00:51:43.545Z,13.73
2019-02-21T00:54:13.865Z,21.23
2019-02-21T00:56:43.339Z,11.95
2019-02-21T00:59:12.812Z,13.67
2019-02-21T01:01:42.267Z,11.73
2019-02-21T01:04:11.799Z,18.70
2019-02-21T01:06:41.272Z,13.63
2019-02-21T01:09:10.742Z,15.77
2019-02-21T01:11:40.188Z,18.10
2019-02-21T01:14:09.661Z,21.80
2019-02-21T01:16:39.123Z,16.30
2019-02-21T01:19:08.581Z,15.27
2019-02-21T01:21:38.083Z,14.80
2019-02-21T01:24:07.523Z,22.37
2019-02-21T01:26:36.976Z,16.33
2019-02-21T01:29:06.451Z,11.40
2019-02-21T01:31:35.934Z,16.57
2019-02-21T01:34:05.362Z,19.25
2019-02-21T01:36:34.841Z,17.57
2019-02-21T01:39:06.186Z,16.70
2019-02-21T01:41:35.666Z,16.75
2019-02-21T01:44:05.124Z,17.70
2019-02-21T01:46:34.599Z,15.77
2019-02-21T01:49:04.071Z,14.07
2019-02-21T01:51:33.524Z,15.00
2019-02-21T01:54:02.981Z,14.37
2019-02-21T01:56:32.459Z,14.97
2019-02-21T01:59:01.918Z,12.60
2019-02-21T02:01:31.375Z,12.53
2019-02-21T02:04:00.854Z,13.30
2019-02-21T02:06:30.325Z,13.20
2019-02-21T02:08:59.805Z,12.13
2019-02-21T02:11:29.261Z,12.20
2019-02-21T02:13:58.730Z,14.57
2019-02-21T02:16:28.193Z,12.83
2019-02-21T02:18:57.686Z,15.40
2019-02-21T02:21:27.162Z,14.03
2019-02-21T02:23:56.610Z,13.80
2019-02-21T02:26:26.067Z,15.40
2019-02-21T02:28:55.702Z,11.83
2019-02-21T02:31:25.203Z,12.63
2019-02-21T02:33:54.722Z,11.77
2019-02-21T02:36:24.190Z,13.50
2019-02-21T02:38:53.645Z,11.97
2019-02-21T02:41:23.101Z,12.00
2019-02-21T02:43:52.624Z,12.77
2019-02-21T02:46:22.037Z,12.27
2019-02-21T02:48:51.502Z,11.80
2019-02-21T02:51:20.972Z,11.70
2019-02-21T02:53:50.425Z,13.10
2019-02-21T02:56:19.902Z,12.30
2019-02-21T02:58:49.354Z,16.17
2019-02-21T03:01:18.815Z,14.00
2019-02-21T03:03:48.381Z,13.13
2019-02-21T03:06:17.835Z,16.83
2019-02-21T03:08:47.316Z,10.80
2019-02-21T03:11:16.791Z,15.37
2019-02-21T03:13:46.251Z,14.30
2019-02-21T03:16:15.726Z,13.40
2019-02-21T03:18:45.177Z,15.20
2019-02-21T03:21:14.636Z,11.50
2019-02-21T03:23:44.084Z,14.20
2019-02-21T03:26:13.560Z,12.80
2019-02-21T03:28:43.038Z,12.17
2019-02-21T03:31:12.497Z,9.80
2019-02-21T03:33:41.961Z,9.47
2019-02-21T03:36:11.435Z,13.95
2019-02-21T03:38:40.912Z,10.13
2019-02-21T03:41:10.753Z,11.75
2019-02-21T03:43:41.154Z,10.97
2019-02-21T03:46:10.603Z,11.87
2019-02-21T03:48:40.079Z,10.37
2019-02-21T03:51:09.548Z,11.67
2019-02-21T03:53:39.106Z,11.50
2019-02-21T03:56:08.563Z,11.33
2019-02-21T03:58:38.026Z,10.03
2019-02-21T04:01:07.494Z,10.88
2019-02-21T04:03:36.954Z,12.67
2019-02-21T04:06:06.439Z,12.47
2019-02-21T04:08:35.884Z,22.13
2019-02-21T04:11:05.346Z,10.87
2019-02-21T04:13:34.815Z,12.30
2019-02-21T04:16:04.548Z,14.10
2019-02-21T04:18:34.002Z,12.75
2019-02-21T04:21:03.477Z,10.10
2019-02-21T04:23:32.933Z,12.50
2019-02-21T04:26:02.394Z,11.33
2019-02-21T04:28:31.868Z,14.37
2019-02-21T04:31:01.327Z,11.93
2019-02-21T04:33:30.818Z,12.47
2019-02-21T04:36:00.292Z,10.70
2019-02-21T04:38:29.743Z,11.13
2019-02-21T04:40:59.224Z,12.80
2019-02-21T04:43:28.684Z,13.50
2019-02-21T04:45:58.161Z,13.20
2019-02-21T04:48:27.628Z,12.00
2019-02-21T04:50:57.068Z,13.67
2019-02-21T04:53:26.549Z,15.17
2019-02-21T04:55:56.000Z,12.93
2019-02-21T04:58:25.480Z,14.97
2019-02-21T05:00:55.002Z,12.93
2019-02-21T05:03:24.462Z,13.80
2019-02-21T05:05:53.937Z,12.70
2019-02-21T05:08:23.398Z,14.87
2019-02-21T05:10:52.866Z,14.43
2019-02-21T05:13:22.334Z,15.08
2019-02-21T05:15:51.811Z,15.17
2019-02-21T05:18:21.275Z,16.20
2019-02-21T05:20:50.715Z,15.17
2019-02-21T05:23:20.189Z,14.20
2019-02-21T05:25:49.647Z,14.77
2019-02-21T05:28:20.840Z,14.40
2019-02-21T05:30:51.932Z,15.67
2019-02-21T05:33:35.726Z,15.57
2019-02-21T05:36:12.415Z,12.10
2019-02-21T05:38:56.461Z,15.50
2019-02-21T05:41:31.347Z,12.80
2019-02-21T05:44:17.001Z,19.23
2019-02-21T05:46:53.573Z,14.20
2019-02-21T05:49:39.464Z,14.87
2019-02-21T05:52:16.338Z,15.97
2019-02-21T05:54:48.011Z,14.77
2019-02-21T05:57:28.237Z,15.00
2019-02-21T06:00:01.940Z,12.70
2019-02-21T06:02:39.018Z,13.77
2019-02-21T06:05:10.189Z,14.57
2019-02-21T06:07:59.030Z,14.90
2019-02-21T06:10:36.979Z,16.13
2019-02-21T06:13:14.892Z,12.77
2019-02-21T06:15:58.012Z,13.90
2019-02-21T06:18:44.684Z,16.10
2019-02-21T06:21:33.585Z,13.63
2019-02-21T06:24:13.121Z,17.03
2019-02-21T06:26:52.923Z,13.77
2019-02-21T06:29:35.831Z,16.85
2019-02-21T06:32:13.904Z,12.30
2019-02-21T06:34:36.474Z,13.87
2019-02-21T06:37:05.954Z,13.43
2019-02-21T06:39:35.403Z,16.73
2019-02-21T06:42:04.974Z,15.37
2019-02-21T06:44:34.532Z,17.07
2019-02-21T06:47:03.984Z,20.00
2019-02-21T06:49:33.442Z,17.03
2019-02-21T06:52:02.911Z,21.80
2019-02-21T06:54:32.368Z,23.03
2019-02-21T06:57:01.828Z,19.62
2019-02-21T06:59:41.557Z,18.17
2019-02-21T07:02:02.479Z,14.87
2019-02-21T07:04:33.364Z,16.33
2019-02-21T07:07:02.894Z,20.20
2019-02-21T07:09:32.350Z,17.50
2019-02-21T07:12:01.822Z,16.23
2019-02-21T07:14:31.383Z,15.30
2019-02-21T07:17:00.868Z,18.02
2019-02-21T07:19:30.319Z,17.23
2019-02-21T07:21:59.796Z,18.07
2019-02-21T07:24:29.324Z,21.47
2019-02-21T07:26:58.786Z,18.90
2019-02-21T07:29:28.261Z,17.73
2019-02-21T07:31:57.721Z,17.20
2019-02-21T07:34:27.196Z,18.50
2019-02-21T07:36:56.650Z,16.93
2019-02-21T07:39:35.677Z,19.77
2019-02-21T07:41:57.289Z,19.03
2019-02-21T07:44:26.744Z,17.93
2019-02-21T07:46:56.199Z,17.50
2019-02-21T07:49:25.890Z,16.00
2019-02-21T07:51:55.302Z,18.00
2019-02-21T07:54:24.769Z,20.60
2019-02-21T07:56:54.247Z,17.63
2019-02-21T07:59:23.721Z,19.20
2019-02-21T08:01:53.200Z,17.80
2019-02-21T08:04:22.658Z,15.77
2019-02-21T08:06:55.432Z,15.30
2019-02-21T08:09:23.556Z,16.30
2019-02-21T08:11:53.089Z,17.80
2019-02-21T08:14:22.573Z,18.30
2019-02-21T08:16:52.026Z,19.40
2019-02-21T08:19:21.474Z,18.90
2019-02-21T08:21:51.078Z,16.97
2019-02-21T08:24:20.578Z,18.60
2019-02-21T08:26:50.056Z,19.50
2019-02-21T08:29:20.776Z,17.73
2019-02-21T08:31:50.351Z,15.77
2019-02-21T08:34:21.461Z,16.90
2019-02-21T08:36:50.916Z,16.90
2019-02-21T08:39:20.392Z,17.13
2019-02-21T08:41:49.858Z,14.00
2019-02-21T08:44:19.321Z,16.80
2019-02-21T08:46:48.797Z,16.77
2019-02-21T08:49:18.441Z,15.97
2019-02-21T08:51:47.900Z,17.17
2019-02-21T08:54:17.374Z,14.47
2019-02-21T08:56:46.828Z,15.87
2019-02-21T08:59:16.284Z,15.40
2019-02-21T09:01:45.761Z,16.27
2019-02-21T09:04:26.883Z,21.60
2019-02-21T09:06:46.430Z,15.30
2019-02-21T09:09:15.940Z,17.00
2019-02-21T09:11:45.425Z,15.97
2019-02-21T09:14:14.877Z,27.63
2019-02-21T09:16:44.353Z,16.60
2019-02-21T09:19:13.802Z,15.05
2019-02-21T09:21:43.331Z,15.93
2019-02-21T09:24:13.845Z,24.77
2019-02-21T09:26:43.987Z,17.20
2019-02-21T09:29:13.464Z,14.23
2019-02-21T09:31:42.929Z,17.23
2019-02-21T09:34:20.878Z,21.77
2019-02-21T09:36:43.596Z,15.17
2019-02-21T09:39:13.053Z,16.70
2019-02-21T09:41:42.514Z,15.20
2019-02-21T09:44:11.988Z,20.03
2019-02-21T09:46:41.450Z,14.47
2019-02-21T09:49:10.902Z,14.40
2019-02-21T09:51:40.385Z,17.00
2019-02-21T09:54:09.849Z,23.10
2019-02-21T09:56:39.310Z,14.97
2019-02-21T09:59:08.781Z,17.03
2019-02-21T10:01:38.242Z,16.43
2019-02-21T10:04:07.701Z,20.48
2019-02-21T10:06:37.175Z,16.90
2019-02-21T10:09:06.966Z,17.17
2019-02-21T10:11:36.457Z,19.02
2019-02-21T10:14:05.912Z,20.60
2019-02-21T10:16:35.377Z,16.47
2019-02-21T10:19:04.865Z,20.10
2019-02-21T10:21:34.339Z,18.10
2019-02-21T10:24:03.786Z,19.70
2019-02-21T10:26:33.293Z,18.37
2019-02-21T10:29:02.716Z,17.37
2019-02-21T10:31:32.190Z,16.43
2019-02-21T10:34:01.676Z,18.83
2019-02-21T10:36:31.127Z,17.77
2019-02-21T10:39:00.663Z,16.97
2019-02-21T10:41:30.136Z,19.90
2019-02-21T10:43:59.714Z,17.87
2019-02-21T10:46:30.917Z,18.57
2019-02-21T10:49:00.490Z,18.23
2019-02-21T10:51:30.202Z,17.77
2019-02-21T10:53:59.687Z,19.80
2019-02-21T10:56:29.152Z,18.10
2019-02-21T10:58:58.613Z,19.80
2019-02-21T11:01:28.100Z,17.98
2019-02-21T11:03:57.558Z,17.10
2019-02-21T11:06:27.056Z,19.70
2019-02-21T11:08:56.513Z,16.27
2019-02-21T11:11:26.161Z,20.40
2019-02-21T11:13:55.631Z,19.07
2019-02-21T11:16:25.117Z,18.67
2019-02-21T11:18:54.626Z,20.97
2019-02-21T11:21:24.122Z,20.52
2019-02-21T11:23:53.607Z,21.57
2019-02-21T11:26:23.319Z,17.65
2019-02-21T11:28:52.775Z,18.60
2019-02-21T11:31:22.269Z,20.37
2019-02-21T11:33:51.733Z,20.10
2019-02-21T11:36:21.281Z,24.87
2019-02-21T11:38:50.741Z,21.10
2019-02-21T11:41:20.375Z,19.23
2019-02-21T11:43:49.924Z,19.53
2019-02-21T11:46:19.393Z,22.20
2019-02-21T11:48:48.858Z,20.88
2019-02-21T11:51:18.338Z,23.40
2019-02-21T11:53:47.798Z,20.23
2019-02-21T11:56:17.269Z,23.47
2019-02-21T11:58:46.757Z,23.80
2019-02-21T12:01:16.288Z,23.77
2019-02-21T12:03:45.769Z,21.27
2019-02-21T12:06:15.235Z,20.93
2019-02-21T12:08:45.012Z,22.20
2019-02-21T12:11:14.530Z,20.57
2019-02-21T12:13:44.036Z,23.57
2019-02-21T12:16:13.522Z,23.97
2019-02-21T12:18:43.002Z,23.80
2019-02-21T12:21:12.466Z,23.47
2019-02-21T12:23:41.941Z,23.80
2019-02-21T12:26:11.594Z,27.67
2019-02-21T12:28:41.050Z,25.67
2019-02-21T12:31:10.771Z,22.62
2019-02-21T12:33:40.243Z,24.47
2019-02-21T12:36:09.717Z,26.30
2019-02-21T12:38:39.202Z,26.63
2019-02-21T12:41:08.669Z,24.97
2019-02-21T12:43:38.137Z,29.13
2019-02-21T12:46:07.623Z,27.70
2019-02-21T12:48:37.090Z,28.47
2019-02-21T12:51:06.565Z,26.90
2019-02-21T12:53:36.052Z,25.97
2019-02-21T12:56:05.509Z,25.10
2019-02-21T12:58:34.994Z,25.88
2019-02-21T13:01:04.482Z,29.57
2019-02-21T13:03:33.961Z,23.80
2019-02-21T13:06:03.716Z,25.90
2019-02-21T13:08:33.173Z,25.40
2019-02-21T13:11:02.658Z,22.87
2019-02-21T13:13:32.136Z,29.90
2019-02-21T13:16:01.600Z,27.03
2019-02-21T13:18:31.060Z,27.90
2019-02-21T13:21:00.545Z,30.47
2019-02-21T13:23:30.026Z,25.20
2019-02-21T13:25:59.513Z,23.03
2019-02-21T13:28:28.951Z,26.63
2019-02-21T13:30:58.443Z,23.10
2019-02-21T13:33:27.919Z,27.77
2019-02-21T13:35:57.396Z,24.87
2019-02-21T13:38:27.097Z,25.23
2019-02-21T13:40:56.560Z,21.63
2019-02-21T13:43:26.042Z,22.70
2019-02-21T13:45:55.517Z,26.80
2019-02-21T13:48:24.978Z,24.00
2019-02-21T13:50:54.472Z,23.83
2019-02-21T13:53:23.928Z,22.30
2019-02-21T13:55:53.423Z,22.67
2019-02-21T13:58:22.937Z,22.90
2019-02-21T14:00:52.497Z,20.47
2019-02-21T14:03:21.910Z,22.60
2019-02-21T14:05:51.452Z,21.67
2019-02-21T14:08:20.930Z,22.10
2019-02-21T14:10:50.654Z,23.30
2019-02-21T14:13:20.151Z,22.50
2019-02-21T14:15:49.621Z,26.93
2019-02-21T14:18:19.087Z,24.80
2019-02-21T14:20:48.627Z,23.70
2019-02-21T14:23:18.129Z,22.90
2019-02-21T14:25:47.570Z,22.10
2019-02-21T14:28:17.057Z,22.00
2019-02-21T14:30:46.518Z,19.70
2019-02-21T14:33:17.458Z,19.97
2019-02-21T14:35:47.132Z,20.17
2019-02-21T14:38:27.026Z,21.70
2019-02-21T14:40:47.805Z,21.17
2019-02-21T14:43:17.548Z,22.17
2019-02-21T14:45:47.027Z,21.97
2019-02-21T14:48:16.508Z,21.75
2019-02-21T14:50:46.009Z,23.53
2019-02-21T14:53:15.495Z,23.03
2019-02-21T14:55:44.960Z,23.00
2019-02-21T14:58:14.449Z,22.27
2019-02-21T15:00:43.984Z,23.67
2019-02-21T15:03:21.529Z,21.52
2019-02-21T15:05:44.902Z,23.97
2019-02-21T15:08:15.344Z,23.17
2019-02-21T15:10:44.834Z,24.40
2019-02-21T15:13:14.285Z,26.47
2019-02-21T15:15:43.745Z,30.83
2019-02-21T15:18:13.229Z,26.33
2019-02-21T15:20:43.545Z,27.80
2019-02-21T15:23:13.146Z,25.45
2019-02-21T15:25:42.643Z,29.00
2019-02-21T15:28:12.223Z,23.70
2019-02-21T15:30:41.679Z,24.20
2019-02-21T15:33:11.143Z,25.40
2019-02-21T15:35:40.622Z,31.87
2019-02-21T15:38:19.607Z,24.00
2019-02-21T15:40:43.356Z,24.47
2019-02-21T15:43:12.483Z,25.27
2019-02-21T15:45:42.015Z,23.87
2019-02-21T15:48:11.552Z,29.23
2019-02-21T15:50:41.043Z,25.77
2019-02-21T15:53:10.514Z,24.20
2019-02-21T15:55:40.080Z,26.70
2019-02-21T15:58:09.529Z,26.43
2019-02-21T16:00:39.002Z,28.80
2019-02-21T16:03:08.491Z,26.77
2019-02-21T16:05:37.954Z,26.90
2019-02-21T16:08:07.418Z,29.63
2019-02-21T16:10:39.663Z,27.37
2019-02-21T16:13:08.438Z,28.37
2019-02-21T16:15:37.926Z,28.30
2019-02-21T16:18:07.407Z,27.27
2019-02-21T16:20:36.873Z,28.77
2019-02-21T16:23:06.352Z,30.80
2019-02-21T16:25:35.812Z,36.30
2019-02-21T16:28:05.278Z,30.87
2019-02-21T16:30:34.766Z,29.43
2019-02-21T16:33:04.226Z,30.80
2019-02-21T16:35:33.693Z,37.30
2019-02-21T16:38:03.174Z,29.80
2019-02-21T16:40:32.666Z,29.23
2019-02-21T16:43:02.128Z,28.45
2019-02-21T16:45:43.028Z,28.77
2019-02-21T16:48:02.804Z,28.87
2019-02-21T16:50:32.300Z,28.40
2019-02-21T16:53:01.779Z,29.87
2019-02-21T16:55:31.243Z,27.30
2019-02-21T16:58:00.712Z,29.67
2019-02-21T17:00:42.242Z,27.80
2019-02-21T17:03:01.446Z,27.30
2019-02-21T17:05:30.980Z,33.27
2019-02-21T17:08:00.469Z,26.70
2019-02-21T17:10:29.934Z,28.07
2019-02-21T17:12:59.414Z,28.40
2019-02-21T17:15:28.903Z,28.63
2019-02-21T17:18:03.885Z,30.07
2019-02-21T17:20:29.548Z,27.57
2019-02-21T17:22:59.100Z,29.07
2019-02-21T17:25:28.565Z,30.40
2019-02-21T17:27:58.062Z,27.57
2019-02-21T17:30:27.527Z,26.87
2019-02-21T17:32:56.994Z,26.95
2019-02-21T17:35:26.481Z,26.80
2019-02-21T17:37:55.937Z,24.10
2019-02-21T17:40:26.309Z,23.10
2019-02-21T17:42:55.866Z,20.10
2019-02-21T17:45:25.490Z,23.80
2019-02-21T17:47:54.959Z,24.40
2019-02-21T17:50:24.436Z,22.00
2019-02-21T17:52:53.918Z,21.67
2019-02-21T17:55:23.468Z,24.30
2019-02-21T17:57:52.999Z,22.82
2019-02-21T18:00:32.536Z,24.90
2019-02-21T18:03:02.001Z,22.90
2019-02-21T18:05:31.479Z,24.73
2019-02-21T18:08:00.939Z,22.60
2019-02-21T18:10:30.485Z,21.70
2019-02-21T18:12:59.970Z,23.60
2019-02-21T18:15:29.454Z,24.80
2019-02-21T18:17:58.918Z,23.37
2019-02-21T18:20:28.537Z,24.53
2019-02-21T18:22:57.996Z,23.50
2019-02-21T18:25:40.654Z,23.20
2019-02-21T18:28:10.137Z,24.37
2019-02-21T18:30:39.603Z,22.37
2019-02-21T18:33:09.099Z,25.23
2019-02-21T18:35:38.548Z,22.47
2019-02-21T18:38:08.258Z,20.70
2019-02-21T18:40:37.746Z,22.00
2019-02-21T18:43:07.286Z,20.37
2019-02-21T18:45:36.762Z,20.10
2019-02-21T18:48:06.383Z,19.17
2019-02-21T18:50:38.440Z,20.37
2019-02-21T18:53:07.029Z,18.60
2019-02-21T18:55:36.497Z,21.37
2019-02-21T18:58:05.960Z,19.50
2019-02-21T19:00:35.445Z,20.70
2019-02-21T19:03:04.895Z,21.87
2019-02-21T19:05:36.116Z,22.43
2019-02-21T19:08:05.999Z,27.98
2019-02-21T19:10:35.527Z,30.37
2019-02-21T19:13:07.638Z,26.25
2019-02-21T19:15:36.271Z,27.60
2019-02-21T19:18:06.014Z,24.70
2019-02-21T19:20:35.576Z,24.80
2019-02-21T19:23:05.054Z,26.07
2019-02-21T19:25:34.537Z,29.33
2019-02-21T19:28:04.020Z,28.00
2019-02-21T19:30:38.300Z,24.20
2019-02-21T19:33:07.928Z,22.63
2019-02-21T19:35:37.726Z,24.80
2019-02-21T19:38:10.264Z,24.63
2019-02-21T19:40:38.403Z,24.37
2019-02-21T19:43:07.854Z,21.97
2019-02-21T19:45:37.314Z,22.40
2019-02-21T19:48:06.867Z,21.43
2019-02-21T19:50:36.418Z,18.80
2019-02-21T19:53:05.957Z,17.00
2019-02-21T19:55:35.447Z,17.57
2019-02-21T19:58:05.013Z,18.00
2019-02-21T20:00:35.342Z,17.30
2019-02-21T20:03:04.877Z,21.37
2019-02-21T20:05:34.364Z,21.07
2019-02-21T20:08:08.808Z,16.48
2019-02-21T20:10:35.833Z,16.95
2019-02-21T20:13:07.192Z,16.60
2019-02-21T20:15:36.737Z,20.80
2019-02-21T20:18:06.454Z,19.97
2019-02-21T20:20:35.991Z,20.03
2019-02-21T20:23:05.512Z,19.62
2019-02-21T20:25:34.996Z,20.10
2019-02-21T20:28:04.456Z,18.77
2019-02-21T20:30:33.932Z,21.47
2019-02-21T20:33:03.407Z,20.90
2019-02-21T20:35:32.940Z,21.57
2019-02-21T20:38:02.662Z,21.03
2019-02-21T20:40:32.140Z,21.00
2019-02-21T20:43:01.595Z,21.03
2019-02-21T20:45:31.145Z,21.67
2019-02-21T20:48:00.594Z,22.40
2019-02-21T20:50:30.120Z,28.93
2019-02-21T20:52:59.594Z,26.10
2019-02-21T20:55:29.093Z,26.47
2019-02-21T20:57:58.547Z,26.97
2019-02-21T21:00:28.181Z,24.37
2019-02-21T21:02:57.654Z,21.47
2019-02-21T21:05:27.189Z,21.17
2019-02-21T21:07:56.672Z,19.77
2019-02-21T21:10:26.200Z,23.40
2019-02-21T21:12:55.671Z,23.30
2019-02-21T21:15:25.132Z,23.17
2019-02-21T21:17:54.610Z,24.75
2019-02-21T21:20:25.899Z,23.23
2019-02-21T21:22:55.315Z,22.03
2019-02-21T21:25:25.062Z,25.00
2019-02-21T21:27:54.546Z,22.67
2019-02-21T21:30:24.101Z,26.40
2019-02-21T21:32:53.568Z,21.05
2019-02-21T21:35:23.029Z,25.17
2019-02-21T21:37:52.777Z,23.35
2019-02-21T21:40:22.311Z,22.73
2019-02-21T21:42:51.779Z,24.30
2019-02-21T21:45:21.249Z,24.63
2019-02-21T21:47:50.715Z,24.97
2019-02-21T21:50:21.462Z,23.56
2019-02-21T21:52:50.998Z,27.03
2019-02-21T21:55:21.086Z,28.72
2019-02-21T21:57:50.647Z,25.50
2019-02-21T22:00:24.575Z,24.70
2019-02-21T22:02:54.208Z,26.17
2019-02-21T22:05:24.753Z,29.04
2019-02-21T22:07:54.229Z,30.17
2019-02-21T22:10:24.754Z,27.90
2019-02-21T22:12:54.205Z,28.07
2019-02-21T22:15:25.559Z,28.12
2019-02-21T22:17:55.273Z,27.70
2019-02-21T22:20:24.762Z,29.57
2019-02-21T22:22:54.235Z,27.77
2019-02-21T22:25:24.828Z,31.76
2019-02-21T22:27:54.290Z,29.20
2019-02-21T22:30:25.002Z,26.17
2019-02-21T22:32:54.479Z,23.60
2019-02-21T22:35:24.932Z,27.50
2019-02-21T22:37:54.387Z,25.80
2019-02-21T22:40:24.922Z,25.10
2019-02-21T22:42:54.395Z,25.27
2019-02-21T22:45:24.913Z,22.84
2019-02-21T22:47:54.366Z,22.53
2019-02-21T22:50:26.815Z,19.88
2019-02-21T22:52:56.146Z,24.80
2019-02-21T22:55:25.611Z,25.50
2019-02-21T22:57:55.069Z,22.17
2019-02-21T23:00:42.460Z,25.43
2019-02-21T23:03:12.394Z,22.77
2019-02-21T23:06:10.153Z,21.93
2019-02-21T23:08:47.334Z,23.70
2019-02-21T23:11:16.822Z,21.97
2019-02-21T23:13:47.751Z,21.17
2019-02-21T23:16:17.360Z,20.60
2019-02-21T23:18:47.298Z,23.37
2019-02-21T23:21:16.859Z,21.30
2019-02-21T23:23:46.368Z,25.53
2019-02-21T23:26:15.873Z,19.90
2019-02-21T23:28:45.396Z,24.18
2019-02-21T23:31:14.878Z,21.60
2019-02-21T23:33:45.980Z,18.70
2019-02-21T23:36:15.462Z,20.60
2019-02-21T23:38:44.940Z,19.70
2019-02-21T23:41:14.402Z,19.70
2019-02-21T23:43:43.883Z,21.90
2019-02-21T23:46:13.386Z,18.30
2019-02-21T23:48:42.843Z,21.40
2019-02-21T23:51:12.323Z,23.40
2019-02-21T23:53:41.787Z,22.17
2019-02-21T23:56:11.257Z,18.80
2019-02-21T23:58:40.735Z,21.23
